createdAt,value
2022-12-20T00:01:57.111Z,87.99
2022-12-20T00:04:25.032Z,88.66
2022-12-20T00:06:53.025Z,88.40
2022-12-20T00:09:20.967Z,87.85
2022-12-20T00:11:48.949Z,88.47
2022-12-20T00:14:16.855Z,88.17
2022-12-20T00:16:45.022Z,88.48
2022-12-20T00:19:14.413Z,88.30
2022-12-20T00:21:42.309Z,88.71
2022-12-20T00:24:11.514Z,88.28
2022-12-20T00:26:39.522Z,87.54
2022-12-20T00:29:09.747Z,88.91
2022-12-20T00:31:37.638Z,88.61
2022-12-20T00:34:05.779Z,88.91
2022-12-20T00:36:35.079Z,88.12
2022-12-20T00:39:05.929Z,87.74
2022-12-20T00:41:35.638Z,87.01
2022-12-20T00:44:04.227Z,87.37
2022-12-20T00:46:35.636Z,87.59
2022-12-20T00:49:03.735Z,87.61
2022-12-20T00:51:32.819Z,87.65
2022-12-20T00:54:04.543Z,87.40
2022-12-20T00:56:34.488Z,87.69
2022-12-20T00:59:11.592Z,87.68
2022-12-20T01:01:39.699Z,88.32
2022-12-20T01:04:10.204Z,89.40
2022-12-20T01:06:38.709Z,88.95
2022-12-20T01:09:07.984Z,88.47
2022-12-20T01:11:38.093Z,88.06
2022-12-20T01:14:12.029Z,88.44
2022-12-20T01:16:42.987Z,88.29
2022-12-20T01:19:13.382Z,88.46
2022-12-20T01:21:45.352Z,88.39
2022-12-20T01:24:15.954Z,88.79
2022-12-20T01:26:44.224Z,88.45
2022-12-20T01:29:12.635Z,88.81
2022-12-20T01:31:41.369Z,88.76
2022-12-20T01:34:09.341Z,88.79
2022-12-20T01:36:39.137Z,88.56
2022-12-20T01:39:10.550Z,88.48
2022-12-20T01:41:44.845Z,88.35
2022-12-20T01:44:42.454Z,88.86
2022-12-20T01:47:11.055Z,88.95
2022-12-20T01:49:45.350Z,89.10
2022-12-20T01:52:16.400Z,88.83
2022-12-20T01:54:48.113Z,89.08
2022-12-20T01:57:22.279Z,88.23
2022-12-20T01:59:53.070Z,88.50
2022-12-20T02:02:21.658Z,88.48
2022-12-20T02:04:49.585Z,88.42
2022-12-20T02:07:22.466Z,88.40
2022-12-20T02:09:50.847Z,88.04
2022-12-20T02:12:23.659Z,87.97
2022-12-20T02:15:05.449Z,88.54
2022-12-20T02:17:46.389Z,87.93
2022-12-20T02:20:36.223Z,88.91
2022-12-20T02:23:32.004Z,88.28
2022-12-20T02:26:16.671Z,88.50
2022-12-20T02:29:09.544Z,88.28
2022-12-20T02:31:44.149Z,88.08
2022-12-20T02:34:13.819Z,88.09
2022-12-20T02:36:41.809Z,88.23
2022-12-20T02:39:11.152Z,87.74
2022-12-20T02:41:43.465Z,87.86
2022-12-20T02:44:33.146Z,88.00
2022-12-20T02:47:10.607Z,88.18
2022-12-20T02:49:42.309Z,88.08
2022-12-20T02:52:13.876Z,87.92
2022-12-20T02:54:42.690Z,88.34
2022-12-20T02:57:17.961Z,88.86
2022-12-20T02:59:52.703Z,88.61
2022-12-20T03:02:22.502Z,88.90
2022-12-20T03:04:55.316Z,88.67
2022-12-20T03:07:24.079Z,88.33
2022-12-20T03:09:55.436Z,88.51
2022-12-20T03:12:23.430Z,88.88
2022-12-20T03:14:51.568Z,87.97
2022-12-20T03:17:20.890Z,88.10
2022-12-20T03:19:48.891Z,87.95
2022-12-20T03:22:16.745Z,87.50
2022-12-20T03:24:46.851Z,87.97
2022-12-20T03:27:17.776Z,87.05
2022-12-20T03:29:46.094Z,87.36
2022-12-20T03:32:14.173Z,87.89
2022-12-20T03:34:46.311Z,88.64
2022-12-20T03:37:16.374Z,88.18
2022-12-20T03:39:44.305Z,88.39
2022-12-20T03:42:12.352Z,89.39
2022-12-20T03:44:43.086Z,88.56
2022-12-20T03:47:11.773Z,88.36
2022-12-20T03:49:39.688Z,88.33
2022-12-20T03:52:13.405Z,87.66
2022-12-20T03:54:41.763Z,87.13
2022-12-20T03:57:13.876Z,88.02
2022-12-20T03:59:41.909Z,88.30
2022-12-20T04:02:12.855Z,87.92
2022-12-20T04:04:40.817Z,88.76
2022-12-20T04:07:08.939Z,88.13
2022-12-20T04:09:40.577Z,87.67
2022-12-20T04:12:12.656Z,88.12
2022-12-20T04:14:41.074Z,87.81
2022-12-20T04:17:08.943Z,87.75
2022-12-20T04:19:38.140Z,87.60
2022-12-20T04:22:07.319Z,87.09
2022-12-20T04:24:51.117Z,87.27
2022-12-20T04:27:27.033Z,86.92
2022-12-20T04:29:58.342Z,86.96
2022-12-20T04:32:26.317Z,88.07
2022-12-20T04:34:54.237Z,87.64
2022-12-20T04:37:22.348Z,87.12
2022-12-20T04:39:58.348Z,87.30
2022-12-20T04:42:46.236Z,87.02
2022-12-20T04:45:16.071Z,87.54
2022-12-20T04:47:43.951Z,87.90
2022-12-20T04:50:14.192Z,87.72
2022-12-20T04:53:01.680Z,87.79
2022-12-20T04:55:31.750Z,87.41
2022-12-20T04:58:07.227Z,87.46
2022-12-20T05:00:37.447Z,88.40
2022-12-20T05:03:18.159Z,87.94
2022-12-20T05:05:46.242Z,87.54
2022-12-20T05:08:14.289Z,86.84
2022-12-20T05:10:43.851Z,86.87
2022-12-20T05:13:12.387Z,87.17
2022-12-20T05:15:44.296Z,86.45
2022-12-20T05:18:13.114Z,86.55
2022-12-20T05:21:15.524Z,86.47
2022-12-20T05:24:03.651Z,87.11
2022-12-20T05:26:38.235Z,87.06
2022-12-20T05:29:08.972Z,87.54
2022-12-20T05:31:37.344Z,87.18
2022-12-20T05:34:05.616Z,87.00
2022-12-20T05:36:36.777Z,86.81
2022-12-20T05:39:07.152Z,87.14
2022-12-20T05:41:41.249Z,87.80
2022-12-20T05:44:10.108Z,88.32
2022-12-20T05:46:41.844Z,87.92
2022-12-20T05:49:14.993Z,87.80
2022-12-20T05:51:43.164Z,87.96
2022-12-20T05:54:26.197Z,87.23
2022-12-20T05:57:04.601Z,87.67
2022-12-20T05:59:36.979Z,88.40
2022-12-20T06:02:07.276Z,86.64
2022-12-20T06:04:36.687Z,87.00
2022-12-20T06:07:11.521Z,87.52
2022-12-20T06:09:39.411Z,87.07
2022-12-20T06:12:15.036Z,87.16
2022-12-20T06:14:43.923Z,86.25
2022-12-20T06:17:13.771Z,86.78
2022-12-20T06:19:42.352Z,85.86
2022-12-20T06:22:12.633Z,86.87
2022-12-20T06:24:48.235Z,86.01
2022-12-20T06:27:22.261Z,86.53
2022-12-20T06:29:58.369Z,85.57
2022-12-20T06:32:31.460Z,86.27
2022-12-20T06:34:59.351Z,85.43
2022-12-20T06:37:27.296Z,84.98
2022-12-20T06:39:55.301Z,85.23
2022-12-20T06:42:25.417Z,85.17
2022-12-20T06:44:55.318Z,85.80
2022-12-20T06:47:23.299Z,85.34
2022-12-20T06:49:52.966Z,85.39
2022-12-20T06:52:23.878Z,85.79
2022-12-20T06:54:55.624Z,85.59
2022-12-20T06:57:25.550Z,85.45
2022-12-20T06:59:55.039Z,85.76
2022-12-20T07:02:25.298Z,85.46
2022-12-20T07:04:55.469Z,85.33
2022-12-20T07:07:23.429Z,84.48
2022-12-20T07:09:51.204Z,84.88
2022-12-20T07:12:20.508Z,85.23
2022-12-20T07:14:49.915Z,85.93
2022-12-20T07:17:20.130Z,85.73
2022-12-20T07:19:51.202Z,85.40
2022-12-20T07:22:19.543Z,85.46
2022-12-20T07:24:47.624Z,85.45
2022-12-20T07:27:15.434Z,85.39
2022-12-20T07:29:43.287Z,85.08
2022-12-20T07:32:14.399Z,85.25
2022-12-20T07:34:42.340Z,85.56
2022-12-20T07:37:11.372Z,84.69
2022-12-20T07:39:39.246Z,85.29
2022-12-20T07:42:07.196Z,84.90
2022-12-20T07:44:43.348Z,84.68
2022-12-20T07:47:12.957Z,84.83
2022-12-20T07:49:41.089Z,84.79
2022-12-20T07:52:11.658Z,84.99
2022-12-20T07:54:45.967Z,84.26
2022-12-20T07:57:20.447Z,83.99
2022-12-20T07:59:52.385Z,83.74
2022-12-20T08:02:26.905Z,83.71
2022-12-20T08:04:56.549Z,83.37
2022-12-20T08:07:25.212Z,83.37
2022-12-20T08:09:53.460Z,83.41
2022-12-20T08:12:22.830Z,83.72
2022-12-20T08:14:52.359Z,83.25
2022-12-20T08:17:21.563Z,83.18
2022-12-20T08:19:51.627Z,82.79
2022-12-20T08:22:20.285Z,83.49
2022-12-20T08:24:48.185Z,83.31
2022-12-20T08:27:16.313Z,83.29
2022-12-20T08:29:45.129Z,83.25
2022-12-20T08:32:14.273Z,83.31
2022-12-20T08:34:43.411Z,82.99
2022-12-20T08:37:15.016Z,82.95
2022-12-20T08:39:43.278Z,83.24
2022-12-20T08:42:11.151Z,82.63
2022-12-20T08:44:39.058Z,82.72
2022-12-20T08:47:06.828Z,82.19
2022-12-20T08:49:34.891Z,81.95
2022-12-20T08:52:04.121Z,81.98
2022-12-20T08:54:31.922Z,82.21
2022-12-20T08:56:59.736Z,81.75
2022-12-20T08:59:27.722Z,81.67
2022-12-20T09:01:55.819Z,81.53
2022-12-20T09:04:23.779Z,81.33
2022-12-20T09:06:51.780Z,81.46
2022-12-20T09:09:20.988Z,81.44
2022-12-20T09:11:48.887Z,81.30
2022-12-20T09:14:17.245Z,81.73
2022-12-20T09:16:45.140Z,81.09
2022-12-20T09:19:14.819Z,80.65
2022-12-20T09:21:42.668Z,81.12
2022-12-20T09:24:10.568Z,81.31
2022-12-20T09:26:41.896Z,81.18
2022-12-20T09:29:09.878Z,81.26
2022-12-20T09:31:38.552Z,81.07
2022-12-20T09:34:06.562Z,80.64
2022-12-20T09:36:34.448Z,80.77
2022-12-20T09:39:02.306Z,80.65
2022-12-20T09:41:37.082Z,80.58
2022-12-20T09:44:15.274Z,80.45
2022-12-20T09:46:47.756Z,80.55
2022-12-20T09:49:19.050Z,80.45
2022-12-20T09:52:02.362Z,80.94
2022-12-20T09:54:40.575Z,80.57
2022-12-20T09:57:19.140Z,80.32
2022-12-20T09:59:50.051Z,80.12
2022-12-20T10:05:16.976Z,80.15
2022-12-20T10:07:54.711Z,79.59
2022-12-20T10:10:41.001Z,79.29
2022-12-20T10:13:22.850Z,79.58
2022-12-20T10:16:01.943Z,79.63
2022-12-20T10:18:46.682Z,79.42
2022-12-20T10:21:20.736Z,79.77
2022-12-20T10:24:01.512Z,79.32
2022-12-20T10:26:30.313Z,79.01
2022-12-20T10:28:58.059Z,78.64
2022-12-20T10:31:28.950Z,78.36
2022-12-20T10:33:57.713Z,77.96
2022-12-20T10:36:27.745Z,77.78
2022-12-20T10:38:59.251Z,77.64
2022-12-20T10:41:29.719Z,78.19
2022-12-20T10:44:01.286Z,78.45
2022-12-20T10:46:43.707Z,78.41
2022-12-20T10:49:41.051Z,78.02
2022-12-20T10:52:14.489Z,77.95
2022-12-20T10:54:44.438Z,77.71
2022-12-20T10:57:20.990Z,78.14
2022-12-20T10:59:53.982Z,77.73
2022-12-20T11:02:37.237Z,77.58
2022-12-20T11:05:23.069Z,77.64
2022-12-20T11:08:33.554Z,78.08
2022-12-20T11:10:44.310Z,78.15
2022-12-20T11:13:22.321Z,78.46
2022-12-20T11:15:52.423Z,77.99
2022-12-20T11:18:31.738Z,77.36
2022-12-20T11:21:16.232Z,76.69
2022-12-20T11:23:52.951Z,76.73
2022-12-20T11:26:32.839Z,77.10
2022-12-20T11:29:18.270Z,76.73
2022-12-20T11:31:58.193Z,77.06
2022-12-20T11:34:37.478Z,76.47
2022-12-20T11:37:20.800Z,76.53
2022-12-20T11:40:05.434Z,76.43
2022-12-20T11:42:48.524Z,77.14
2022-12-20T11:45:24.813Z,76.54
2022-12-20T11:48:27.948Z,76.64
2022-12-20T11:51:07.574Z,76.66
2022-12-20T11:53:45.608Z,77.15
2022-12-20T11:56:18.785Z,77.37
2022-12-20T11:58:54.594Z,76.65
2022-12-20T12:01:26.120Z,76.60
2022-12-20T12:04:05.556Z,77.14
2022-12-20T12:06:39.082Z,76.85
2022-12-20T12:09:17.155Z,76.75
2022-12-20T12:12:08.223Z,76.49
2022-12-20T12:14:47.511Z,76.18
2022-12-20T12:17:25.847Z,75.75
2022-12-20T12:19:58.130Z,76.24
2022-12-20T12:22:33.719Z,76.23
2022-12-20T12:25:07.530Z,76.53
2022-12-20T12:27:35.856Z,75.98
2022-12-20T12:30:04.247Z,75.82
2022-12-20T12:32:39.381Z,75.78
2022-12-20T12:35:22.962Z,75.82
2022-12-20T12:38:06.046Z,75.16
2022-12-20T12:41:00.318Z,74.79
2022-12-20T12:43:46.858Z,75.01
2022-12-20T12:46:20.371Z,75.09
2022-12-20T12:48:55.631Z,74.44
2022-12-20T12:51:28.696Z,74.72
2022-12-20T12:54:06.085Z,74.40
2022-12-20T12:56:44.601Z,74.31
2022-12-20T12:59:48.040Z,74.02
2022-12-20T13:02:50.038Z,74.50
2022-12-20T13:05:37.121Z,74.08
2022-12-20T13:08:05.898Z,74.37
2022-12-20T13:11:03.872Z,74.90
2022-12-20T13:13:31.744Z,75.16
2022-12-20T13:16:12.384Z,75.17
2022-12-20T13:18:57.218Z,74.83
2022-12-20T13:21:44.786Z,74.75
2022-12-20T13:24:37.662Z,74.34
2022-12-20T13:27:18.441Z,74.74
2022-12-20T13:30:13.506Z,74.83
2022-12-20T13:33:04.490Z,73.81
2022-12-20T13:35:45.461Z,73.82
2022-12-20T13:38:39.974Z,73.27
2022-12-20T13:41:19.187Z,74.08
2022-12-20T13:43:50.580Z,74.29
2022-12-20T13:46:25.290Z,74.62
2022-12-20T13:48:57.001Z,74.62
2022-12-20T13:51:26.857Z,75.27
2022-12-20T13:53:59.497Z,74.62
2022-12-20T13:56:36.300Z,74.17
2022-12-20T13:59:15.393Z,74.83
2022-12-20T14:01:50.660Z,74.51
2022-12-20T14:04:19.856Z,74.92
2022-12-20T14:06:53.502Z,74.89
2022-12-20T14:09:29.948Z,74.62
2022-12-20T14:12:04.686Z,74.61
2022-12-20T14:14:38.392Z,74.69
2022-12-20T14:17:19.378Z,74.45
2022-12-20T14:19:47.370Z,74.96
2022-12-20T14:22:15.543Z,75.41
2022-12-20T14:24:46.568Z,74.30
2022-12-20T14:27:15.660Z,74.52
2022-12-20T14:29:46.330Z,74.05
2022-12-20T14:32:20.310Z,74.38
2022-12-20T14:34:48.810Z,74.39
2022-12-20T14:37:29.368Z,74.36
2022-12-20T14:40:00.118Z,74.92
2022-12-20T14:42:33.807Z,74.85
2022-12-20T14:45:18.345Z,74.81
2022-12-20T14:47:57.118Z,74.88
2022-12-20T14:50:30.395Z,74.97
2022-12-20T14:53:01.964Z,75.42
2022-12-20T14:55:36.397Z,75.13
2022-12-20T14:58:24.011Z,75.49
2022-12-20T15:01:01.706Z,75.33
2022-12-20T15:03:30.294Z,75.54
2022-12-20T15:05:59.839Z,75.26
2022-12-20T15:08:32.781Z,75.44
2022-12-20T15:11:04.075Z,75.52
2022-12-20T15:13:34.336Z,75.64
2022-12-20T15:16:05.878Z,75.80
2022-12-20T15:18:33.917Z,75.47
2022-12-20T15:21:07.819Z,75.91
2022-12-20T15:23:36.155Z,75.39
2022-12-20T15:26:06.437Z,75.23
2022-12-20T15:28:34.771Z,75.60
2022-12-20T15:31:05.737Z,75.79
2022-12-20T15:33:35.788Z,75.85
2022-12-20T15:36:03.843Z,76.08
2022-12-20T15:39:03.193Z,75.63
2022-12-20T15:41:23.104Z,75.90
2022-12-20T15:43:55.229Z,75.87
2022-12-20T15:46:24.707Z,75.92
2022-12-20T15:48:52.704Z,75.53
2022-12-20T15:51:27.937Z,75.79
2022-12-20T15:53:56.257Z,75.98
2022-12-20T15:56:25.650Z,75.90
2022-12-20T15:58:53.731Z,75.05
2022-12-20T16:01:27.024Z,75.67
2022-12-20T16:03:55.147Z,76.17
2022-12-20T16:06:23.169Z,75.86
2022-12-20T16:08:51.088Z,76.18
2022-12-20T16:11:22.433Z,76.58
2022-12-20T16:13:50.695Z,75.99
2022-12-20T16:16:19.627Z,76.91
2022-12-20T16:18:49.053Z,76.54
2022-12-20T16:21:18.824Z,76.22
2022-12-20T16:23:47.054Z,76.29
2022-12-20T16:26:16.332Z,76.52
2022-12-20T16:28:44.508Z,76.60
2022-12-20T16:31:18.764Z,76.32
2022-12-20T16:33:48.009Z,76.25
2022-12-20T16:36:16.099Z,76.45
2022-12-20T16:38:44.816Z,76.02
2022-12-20T16:41:15.223Z,76.17
2022-12-20T16:43:43.606Z,76.84
2022-12-20T16:46:13.646Z,76.55
2022-12-20T16:48:42.112Z,76.72
2022-12-20T16:51:24.702Z,76.74
2022-12-20T16:56:41.332Z,77.21
2022-12-20T16:59:19.135Z,77.33
2022-12-20T17:01:49.752Z,76.78
2022-12-20T17:04:19.388Z,76.83
2022-12-20T17:06:49.087Z,76.72
2022-12-20T17:09:17.358Z,77.52
2022-12-20T17:11:45.209Z,77.69
2022-12-20T17:14:15.403Z,77.30
2022-12-20T17:16:43.285Z,77.72
2022-12-20T17:19:13.927Z,77.32
2022-12-20T17:24:31.431Z,77.88
2022-12-20T17:27:00.414Z,77.78
2022-12-20T17:29:30.720Z,76.94
2022-12-20T17:31:58.618Z,77.66
2022-12-20T17:34:27.837Z,77.98
2022-12-20T17:36:57.460Z,77.77
2022-12-20T17:39:26.694Z,77.73
2022-12-20T17:41:56.725Z,77.01
2022-12-20T17:44:26.641Z,77.36
2022-12-20T17:46:55.838Z,77.27
2022-12-20T17:49:24.526Z,77.57
2022-12-20T17:51:52.938Z,76.83
2022-12-20T17:54:34.962Z,77.22
2022-12-20T17:57:06.018Z,77.46
2022-12-20T17:59:33.929Z,77.27
2022-12-20T18:02:01.962Z,76.85
2022-12-20T18:04:30.097Z,76.60
2022-12-20T18:06:57.995Z,76.62
2022-12-20T18:09:25.855Z,76.42
2022-12-20T18:11:53.748Z,76.24
2022-12-20T18:14:23.092Z,76.61
2022-12-20T18:16:51.288Z,76.54
2022-12-20T18:19:21.553Z,76.39
2022-12-20T18:21:49.465Z,76.79
2022-12-20T18:24:18.015Z,76.41
2022-12-20T18:26:46.541Z,76.60
2022-12-20T18:29:14.602Z,76.69
2022-12-20T18:31:43.995Z,76.70
2022-12-20T18:34:11.848Z,76.59
2022-12-20T18:36:39.715Z,76.95
2022-12-20T18:39:09.481Z,77.03
2022-12-20T18:41:37.804Z,76.91
2022-12-20T18:44:07.633Z,76.55
2022-12-20T18:46:38.357Z,77.18
2022-12-20T18:49:07.967Z,77.46
2022-12-20T18:51:37.533Z,76.96
2022-12-20T18:54:06.852Z,76.93
2022-12-20T18:56:37.359Z,77.46
2022-12-20T18:59:11.322Z,77.17
2022-12-20T19:01:40.700Z,77.39
2022-12-20T19:04:11.133Z,77.62
2022-12-20T19:06:39.724Z,77.36
2022-12-20T19:09:11.516Z,78.16
2022-12-20T19:11:39.889Z,77.41
2022-12-20T19:14:08.708Z,77.38
2022-12-20T19:16:39.596Z,76.92
2022-12-20T19:19:09.431Z,77.05
2022-12-20T19:21:41.578Z,77.05
2022-12-20T19:24:11.549Z,76.80
2022-12-20T19:26:40.101Z,77.06
2022-12-20T19:29:08.594Z,76.38
2022-12-20T19:31:38.168Z,76.56
2022-12-20T19:34:08.510Z,76.26
2022-12-20T19:36:40.215Z,76.38
2022-12-20T19:39:13.236Z,76.86
2022-12-20T19:41:41.273Z,77.95
2022-12-20T19:44:09.465Z,76.72
2022-12-20T19:46:37.386Z,76.38
2022-12-20T19:49:05.324Z,76.58
2022-12-20T19:51:33.391Z,77.14
2022-12-20T19:54:02.813Z,76.49
2022-12-20T19:56:35.135Z,76.70
2022-12-20T19:59:03.828Z,76.72
2022-12-20T20:01:31.661Z,77.26
2022-12-20T20:04:01.835Z,77.57
2022-12-20T20:06:30.031Z,77.65
2022-12-20T20:08:59.749Z,78.02
2022-12-20T20:11:29.699Z,77.78
2022-12-20T20:13:57.727Z,78.31
2022-12-20T20:16:26.443Z,78.68
2022-12-20T20:18:54.495Z,79.88
2022-12-20T20:21:24.338Z,79.53
2022-12-20T20:23:53.211Z,79.75
2022-12-20T20:26:25.497Z,79.60
2022-12-20T20:28:55.574Z,81.41
2022-12-20T20:31:24.192Z,81.20
2022-12-20T20:33:52.292Z,81.44
2022-12-20T20:36:21.774Z,82.77
2022-12-20T20:38:49.835Z,81.70
2022-12-20T20:41:18.538Z,82.22
2022-12-20T20:43:46.376Z,84.43
2022-12-20T20:46:16.980Z,83.31
2022-12-20T20:48:45.736Z,84.94
2022-12-20T20:51:13.740Z,86.61
2022-12-20T20:53:41.640Z,85.73
2022-12-20T20:56:10.137Z,85.90
2022-12-20T20:58:38.387Z,86.17
2022-12-20T21:01:09.417Z,85.92
2022-12-20T21:03:40.078Z,85.39
2022-12-20T21:08:58.528Z,85.86
2022-12-20T21:11:26.543Z,85.52
2022-12-20T21:13:54.936Z,87.22
2022-12-20T21:16:24.371Z,86.98
2022-12-20T21:18:55.244Z,87.44
2022-12-20T21:21:24.582Z,86.92
2022-12-20T21:23:52.791Z,86.05
2022-12-20T21:26:22.026Z,85.88
2022-12-20T21:28:49.865Z,85.86
2022-12-20T21:31:20.066Z,85.78
2022-12-20T21:33:48.066Z,85.78
2022-12-20T21:36:19.253Z,86.11
2022-12-20T21:38:50.371Z,86.37
2022-12-20T21:41:20.062Z,86.97
2022-12-20T21:43:48.035Z,86.90
2022-12-20T21:46:16.126Z,87.33
2022-12-20T21:48:45.590Z,87.34
2022-12-20T21:51:18.473Z,89.51
2022-12-20T21:53:48.234Z,89.48
2022-12-20T21:56:19.897Z,90.37
2022-12-20T21:58:50.724Z,93.19
2022-12-20T22:01:21.301Z,92.04
2022-12-20T22:03:51.142Z,89.46
2022-12-20T22:06:20.398Z,89.05
2022-12-20T22:08:48.663Z,88.56
2022-12-20T22:11:19.665Z,87.57
2022-12-20T22:13:48.019Z,87.32
2022-12-20T22:16:17.606Z,88.03
2022-12-20T22:18:49.038Z,88.16
2022-12-20T22:21:17.866Z,88.90
2022-12-20T22:23:47.432Z,89.01
2022-12-20T22:26:17.099Z,90.95
2022-12-20T22:28:46.924Z,91.86
2022-12-20T22:31:15.475Z,90.87
2022-12-20T22:33:43.596Z,89.81
2022-12-20T22:36:15.909Z,89.32
2022-12-20T22:38:44.755Z,88.71
2022-12-20T22:41:16.554Z,90.56
2022-12-20T22:43:45.827Z,90.39
2022-12-20T22:46:17.382Z,89.61
2022-12-20T22:48:45.938Z,89.08
2022-12-20T22:51:16.500Z,89.17
2022-12-20T22:53:45.319Z,89.04
2022-12-20T22:56:15.305Z,89.11
2022-12-20T22:58:43.827Z,88.96
2022-12-20T23:01:15.209Z,88.88
2022-12-20T23:03:43.529Z,89.20
2022-12-20T23:06:13.731Z,88.84
2022-12-20T23:08:42.286Z,88.57
2022-12-20T23:11:34.867Z,88.55
2022-12-20T23:14:20.650Z,88.27
2022-12-20T23:16:48.501Z,88.11
2022-12-20T23:19:16.519Z,87.48
2022-12-20T23:22:02.788Z,86.78
2022-12-20T23:24:32.887Z,87.42
2022-12-20T23:27:02.288Z,85.09
2022-12-20T23:29:30.903Z,84.48
2022-12-20T23:31:58.924Z,84.47
2022-12-20T23:34:26.883Z,84.04
2022-12-20T23:36:54.702Z,85.35
2022-12-20T23:39:22.576Z,85.77
2022-12-20T23:41:50.365Z,85.85
2022-12-20T23:44:22.318Z,86.72
2022-12-20T23:46:50.757Z,86.74
2022-12-20T23:49:18.691Z,88.25
2022-12-20T23:51:46.446Z,88.63
2022-12-20T23:54:15.210Z,87.89
2022-12-20T23:56:42.971Z,88.17
2022-12-20T23:59:10.777Z,88.39
